sensor_id;sensor_type;location;lat;lon;timestamp;temperature;humidity
52295;DHT22;38243;53.212;6.574;2023-12-20T00:00:26;16.70;96.70
52295;DHT22;38243;53.212;6.574;2023-12-20T00:02:52;16.70;96.60
52295;DHT22;38243;53.212;6.574;2023-12-20T00:05:17;16.70;96.60
52295;DHT22;38243;53.212;6.574;2023-12-20T00:07:43;16.60;96.50
52295;DHT22;38243;53.212;6.574;2023-12-20T00:10:09;16.70;96.50
52295;DHT22;38243;53.212;6.574;2023-12-20T00:12:35;16.60;96.60
52295;DHT22;38243;53.212;6.574;2023-12-20T00:15:00;16.60;96.60
52295;DHT22;38243;53.212;6.574;2023-12-20T00:17:26;16.60;96.40
52295;DHT22;38243;53.212;6.574;2023-12-20T00:19:52;16.60;96.50
52295;DHT22;38243;53.212;6.574;2023-12-20T00:22:17;16.60;96.40
52295;DHT22;38243;53.212;6.574;2023-12-20T00:24:43;16.60;96.50
52295;DHT22;38243;53.212;6.574;2023-12-20T00:27:09;16.60;96.50
52295;DHT22;38243;53.212;6.574;2023-12-20T00:29:35;16.60;96.40
52295;DHT22;38243;53.212;6.574;2023-12-20T00:32:00;16.50;96.50
52295;DHT22;38243;53.212;6.574;2023-12-20T00:34:26;16.60;96.50
52295;DHT22;38243;53.212;6.574;2023-12-20T00:36:52;16.50;96.20
52295;DHT22;38243;53.212;6.574;2023-12-20T00:39:17;16.60;96.40
52295;DHT22;38243;53.212;6.574;2023-12-20T00:41:43;16.50;96.30
52295;DHT22;38243;53.212;6.574;2023-12-20T00:44:09;16.60;96.20
52295;DHT22;38243;53.212;6.574;2023-12-20T00:46:34;16.50;96.20
52295;DHT22;38243;53.212;6.574;2023-12-20T00:49:00;16.50;96.30
52295;DHT22;38243;53.212;6.574;2023-12-20T00:51:26;16.00;96.30
52295;DHT22;38243;53.212;6.574;2023-12-20T00:53:51;16.50;96.40
52295;DHT22;38243;53.212;6.574;2023-12-20T00:56:20;16.50;96.30
52295;DHT22;38243;53.212;6.574;2023-12-20T00:58:46;16.50;96.20
52295;DHT22;38243;53.212;6.574;2023-12-20T01:01:12;16.50;96.20
52295;DHT22;38243;53.212;6.574;2023-12-20T01:03:38;16.50;96.20
52295;DHT22;38243;53.212;6.574;2023-12-20T01:06:04;16.50;96.10
52295;DHT22;38243;53.212;6.574;2023-12-20T01:08:30;16.50;96.00
52295;DHT22;38243;53.212;6.574;2023-12-20T01:10:56;16.40;96.10
52295;DHT22;38243;53.212;6.574;2023-12-20T01:13:22;16.40;96.20
52295;DHT22;38243;53.212;6.574;2023-12-20T01:15:48;17.70;96.40
52295;DHT22;38243;53.212;6.574;2023-12-20T01:18:14;16.40;96.00
52295;DHT22;38243;53.212;6.574;2023-12-20T01:20:40;16.40;96.00
52295;DHT22;38243;53.212;6.574;2023-12-20T01:23:06;16.40;96.00
52295;DHT22;38243;53.212;6.574;2023-12-20T01:25:31;16.40;96.00
52295;DHT22;38243;53.212;6.574;2023-12-20T01:27:57;16.40;96.00
52295;DHT22;38243;53.212;6.574;2023-12-20T01:30:23;16.40;95.90
52295;DHT22;38243;53.212;6.574;2023-12-20T01:32:49;16.40;95.90
52295;DHT22;38243;53.212;6.574;2023-12-20T01:35:15;16.40;95.90
52295;DHT22;38243;53.212;6.574;2023-12-20T01:37:41;16.40;95.90
52295;DHT22;38243;53.212;6.574;2023-12-20T01:40:07;16.40;95.90
52295;DHT22;38243;53.212;6.574;2023-12-20T01:42:33;16.40;95.90
52295;DHT22;38243;53.212;6.574;2023-12-20T01:44:59;16.40;95.90
52295;DHT22;38243;53.212;6.574;2023-12-20T01:47:25;16.40;95.80
52295;DHT22;38243;53.212;6.574;2023-12-20T01:49:52;16.40;95.80
52295;DHT22;38243;53.212;6.574;2023-12-20T01:52:19;16.40;95.80
52295;DHT22;38243;53.212;6.574;2023-12-20T01:54:46;16.40;95.80
52295;DHT22;38243;53.212;6.574;2023-12-20T01:57:13;16.40;95.80
52295;DHT22;38243;53.212;6.574;2023-12-20T01:59:39;16.40;95.80
52295;DHT22;38243;53.212;6.574;2023-12-20T02:02:06;16.40;95.80
52295;DHT22;38243;53.212;6.574;2023-12-20T02:04:33;16.40;95.80
52295;DHT22;38243;53.212;6.574;2023-12-20T02:06:59;16.40;95.80
52295;DHT22;38243;53.212;6.574;2023-12-20T02:09:24;16.40;95.80
52295;DHT22;38243;53.212;6.574;2023-12-20T02:11:50;16.40;95.70
52295;DHT22;38243;53.212;6.574;2023-12-20T02:14:16;16.40;95.70
52295;DHT22;38243;53.212;6.574;2023-12-20T02:16:42;16.50;95.80
52295;DHT22;38243;53.212;6.574;2023-12-20T02:19:13;16.50;95.80
52295;DHT22;38243;53.212;6.574;2023-12-20T02:21:40;16.50;95.70
52295;DHT22;38243;53.212;6.574;2023-12-20T02:24:06;16.50;95.80
52295;DHT22;38243;53.212;6.574;2023-12-20T02:26:34;16.50;95.70
52295;DHT22;38243;53.212;6.574;2023-12-20T02:29:01;16.50;95.60
52295;DHT22;38243;53.212;6.574;2023-12-20T02:31:27;16.50;95.60
52295;DHT22;38243;53.212;6.574;2023-12-20T02:33:53;16.40;95.50
52295;DHT22;38243;53.212;6.574;2023-12-20T02:36:19;16.40;95.40
52295;DHT22;38243;53.212;6.574;2023-12-20T02:38:44;16.40;95.40
52295;DHT22;38243;53.212;6.574;2023-12-20T02:41:10;16.40;95.40
52295;DHT22;38243;53.212;6.574;2023-12-20T02:43:37;16.40;95.30
52295;DHT22;38243;53.212;6.574;2023-12-20T02:46:02;16.40;95.30
52295;DHT22;38243;53.212;6.574;2023-12-20T02:48:28;16.40;95.20
52295;DHT22;38243;53.212;6.574;2023-12-20T02:50:54;16.40;95.40
52295;DHT22;38243;53.212;6.574;2023-12-20T02:53:20;16.40;95.40
52295;DHT22;38243;53.212;6.574;2023-12-20T02:55:46;16.40;95.40
52295;DHT22;38243;53.212;6.574;2023-12-20T02:58:11;16.40;95.30
52295;DHT22;38243;53.212;6.574;2023-12-20T03:00:37;16.40;95.30
52295;DHT22;38243;53.212;6.574;2023-12-20T03:03:03;16.40;95.20
52295;DHT22;38243;53.212;6.574;2023-12-20T03:05:29;16.40;95.20
52295;DHT22;38243;53.212;6.574;2023-12-20T03:07:55;16.40;95.20
52295;DHT22;38243;53.212;6.574;2023-12-20T03:10:20;16.40;95.20
52295;DHT22;38243;53.212;6.574;2023-12-20T03:12:46;16.40;95.30
52295;DHT22;38243;53.212;6.574;2023-12-20T03:15:12;16.30;95.20
52295;DHT22;38243;53.212;6.574;2023-12-20T03:17:38;16.30;95.20
52295;DHT22;38243;53.212;6.574;2023-12-20T03:20:03;16.40;95.20
52295;DHT22;38243;53.212;6.574;2023-12-20T03:22:29;16.40;95.20
52295;DHT22;38243;53.212;6.574;2023-12-20T03:24:55;16.30;95.10
52295;DHT22;38243;53.212;6.574;2023-12-20T03:27:21;16.40;95.20
52295;DHT22;38243;53.212;6.574;2023-12-20T03:29:49;16.30;95.10
52295;DHT22;38243;53.212;6.574;2023-12-20T03:32:15;16.40;95.20
52295;DHT22;38243;53.212;6.574;2023-12-20T03:34:41;16.30;95.20
52295;DHT22;38243;53.212;6.574;2023-12-20T03:37:07;16.40;95.30
52295;DHT22;38243;53.212;6.574;2023-12-20T03:39:32;16.40;95.20
52295;DHT22;38243;53.212;6.574;2023-12-20T03:41:58;16.40;95.20
52295;DHT22;38243;53.212;6.574;2023-12-20T03:44:24;16.40;95.20
52295;DHT22;38243;53.212;6.574;2023-12-20T03:46:49;16.40;95.20
52295;DHT22;38243;53.212;6.574;2023-12-20T03:49:15;16.40;95.20
52295;DHT22;38243;53.212;6.574;2023-12-20T03:51:41;16.40;95.20
52295;DHT22;38243;53.212;6.574;2023-12-20T03:54:08;16.40;95.10
52295;DHT22;38243;53.212;6.574;2023-12-20T03:56:33;16.40;95.10
52295;DHT22;38243;53.212;6.574;2023-12-20T03:59:02;16.40;95.00
52295;DHT22;38243;53.212;6.574;2023-12-20T04:01:28;16.30;95.00
52295;DHT22;38243;53.212;6.574;2023-12-20T04:03:54;16.30;94.90
52295;DHT22;38243;53.212;6.574;2023-12-20T04:06:19;16.40;95.00
52295;DHT22;38243;53.212;6.574;2023-12-20T04:08:45;16.30;95.00
52295;DHT22;38243;53.212;6.574;2023-12-20T04:11:11;16.30;95.00
52295;DHT22;38243;53.212;6.574;2023-12-20T04:13:36;16.30;94.90
52295;DHT22;38243;53.212;6.574;2023-12-20T04:16:02;16.30;94.90
52295;DHT22;38243;53.212;6.574;2023-12-20T04:18:28;16.30;94.80
52295;DHT22;38243;53.212;6.574;2023-12-20T04:20:54;16.30;94.90
52295;DHT22;38243;53.212;6.574;2023-12-20T04:23:20;16.30;94.90
52295;DHT22;38243;53.212;6.574;2023-12-20T04:25:46;16.30;94.70
52295;DHT22;38243;53.212;6.574;2023-12-20T04:28:12;16.30;94.80
52295;DHT22;38243;53.212;6.574;2023-12-20T04:30:38;16.30;94.80
52295;DHT22;38243;53.212;6.574;2023-12-20T04:33:03;16.30;94.80
52295;DHT22;38243;53.212;6.574;2023-12-20T04:35:29;16.30;94.80
52295;DHT22;38243;53.212;6.574;2023-12-20T04:37:55;16.30;94.80
52295;DHT22;38243;53.212;6.574;2023-12-20T04:40:21;16.30;94.80
52295;DHT22;38243;53.212;6.574;2023-12-20T04:42:46;16.30;94.80
52295;DHT22;38243;53.212;6.574;2023-12-20T04:45:12;16.30;94.80
52295;DHT22;38243;53.212;6.574;2023-12-20T04:47:39;16.30;94.80
52295;DHT22;38243;53.212;6.574;2023-12-20T04:50:05;16.30;94.70
52295;DHT22;38243;53.212;6.574;2023-12-20T04:52:31;16.30;94.70
52295;DHT22;38243;53.212;6.574;2023-12-20T04:54:57;16.30;94.70
52295;DHT22;38243;53.212;6.574;2023-12-20T04:57:22;16.30;94.80
52295;DHT22;38243;53.212;6.574;2023-12-20T04:59:48;16.30;94.60
52295;DHT22;38243;53.212;6.574;2023-12-20T05:02:14;16.30;94.70
52295;DHT22;38243;53.212;6.574;2023-12-20T05:04:40;16.30;94.70
52295;DHT22;38243;53.212;6.574;2023-12-20T05:07:07;16.30;94.70
52295;DHT22;38243;53.212;6.574;2023-12-20T05:09:33;16.30;94.70
52295;DHT22;38243;53.212;6.574;2023-12-20T05:11:58;16.30;94.60
52295;DHT22;38243;53.212;6.574;2023-12-20T05:14:25;16.30;94.60
52295;DHT22;38243;53.212;6.574;2023-12-20T05:16:51;16.30;94.60
52295;DHT22;38243;53.212;6.574;2023-12-20T05:19:16;16.30;94.60
52295;DHT22;38243;53.212;6.574;2023-12-20T05:21:42;16.30;94.60
52295;DHT22;38243;53.212;6.574;2023-12-20T05:24:08;16.30;94.50
52295;DHT22;38243;53.212;6.574;2023-12-20T05:26:33;16.30;94.50
52295;DHT22;38243;53.212;6.574;2023-12-20T05:28:59;16.30;94.50
52295;DHT22;38243;53.212;6.574;2023-12-20T05:31:25;16.30;94.50
52295;DHT22;38243;53.212;6.574;2023-12-20T05:33:50;16.30;94.50
52295;DHT22;38243;53.212;6.574;2023-12-20T05:36:17;16.30;94.50
52295;DHT22;38243;53.212;6.574;2023-12-20T05:38:46;16.30;94.50
52295;DHT22;38243;53.212;6.574;2023-12-20T05:41:12;16.30;94.50
52295;DHT22;38243;53.212;6.574;2023-12-20T05:43:42;16.30;94.40
52295;DHT22;38243;53.212;6.574;2023-12-20T05:46:10;16.30;94.40
52295;DHT22;38243;53.212;6.574;2023-12-20T05:48:36;16.30;94.50
52295;DHT22;38243;53.212;6.574;2023-12-20T05:51:02;16.30;94.50
52295;DHT22;38243;53.212;6.574;2023-12-20T05:53:28;16.30;94.40
52295;DHT22;38243;53.212;6.574;2023-12-20T05:55:54;16.30;94.60
52295;DHT22;38243;53.212;6.574;2023-12-20T05:58:20;16.30;94.60
52295;DHT22;38243;53.212;6.574;2023-12-20T06:00:53;16.40;94.70
52295;DHT22;38243;53.212;6.574;2023-12-20T06:03:19;16.30;94.80
52295;DHT22;38243;53.212;6.574;2023-12-20T06:05:45;16.30;94.90
52295;DHT22;38243;53.212;6.574;2023-12-20T06:08:11;16.30;94.90
52295;DHT22;38243;53.212;6.574;2023-12-20T06:10:37;16.30;94.90
52295;DHT22;38243;53.212;6.574;2023-12-20T06:13:02;16.30;95.00
52295;DHT22;38243;53.212;6.574;2023-12-20T06:15:29;16.30;95.10
52295;DHT22;38243;53.212;6.574;2023-12-20T06:17:55;16.30;95.10
52295;DHT22;38243;53.212;6.574;2023-12-20T06:20:21;16.30;95.00
52295;DHT22;38243;53.212;6.574;2023-12-20T06:22:47;16.30;95.00
52295;DHT22;38243;53.212;6.574;2023-12-20T06:25:12;16.20;95.10
52295;DHT22;38243;53.212;6.574;2023-12-20T06:27:38;16.30;95.20
52295;DHT22;38243;53.212;6.574;2023-12-20T06:30:04;16.30;95.20
52295;DHT22;38243;53.212;6.574;2023-12-20T06:32:30;16.30;95.10
52295;DHT22;38243;53.212;6.574;2023-12-20T06:34:56;16.30;95.10
52295;DHT22;38243;53.212;6.574;2023-12-20T06:37:22;16.30;95.00
52295;DHT22;38243;53.212;6.574;2023-12-20T06:39:47;16.30;94.90
52295;DHT22;38243;53.212;6.574;2023-12-20T06:42:14;16.30;95.00
52295;DHT22;38243;53.212;6.574;2023-12-20T06:44:39;16.30;95.00
52295;DHT22;38243;53.212;6.574;2023-12-20T06:47:06;16.30;94.90
52295;DHT22;38243;53.212;6.574;2023-12-20T06:49:32;16.30;94.90
52295;DHT22;38243;53.212;6.574;2023-12-20T06:51:58;16.30;94.90
52295;DHT22;38243;53.212;6.574;2023-12-20T06:54:24;16.30;94.90
52295;DHT22;38243;53.212;6.574;2023-12-20T06:56:50;16.30;94.70
52295;DHT22;38243;53.212;6.574;2023-12-20T06:59:15;16.30;94.70
52295;DHT22;38243;53.212;6.574;2023-12-20T07:01:41;16.30;94.80
52295;DHT22;38243;53.212;6.574;2023-12-20T07:04:08;16.30;94.70
52295;DHT22;38243;53.212;6.574;2023-12-20T07:06:33;16.30;94.70
52295;DHT22;38243;53.212;6.574;2023-12-20T07:08:59;16.30;94.80
52295;DHT22;38243;53.212;6.574;2023-12-20T07:11:25;16.30;94.80
52295;DHT22;38243;53.212;6.574;2023-12-20T07:13:51;16.30;94.70
52295;DHT22;38243;53.212;6.574;2023-12-20T07:16:17;16.30;94.70
52295;DHT22;38243;53.212;6.574;2023-12-20T07:18:43;16.30;94.70
52295;DHT22;38243;53.212;6.574;2023-12-20T07:21:08;16.30;94.70
52295;DHT22;38243;53.212;6.574;2023-12-20T07:23:34;16.30;94.60
52295;DHT22;38243;53.212;6.574;2023-12-20T07:26:00;16.00;94.50
52295;DHT22;38243;53.212;6.574;2023-12-20T07:28:25;16.30;94.50
52295;DHT22;38243;53.212;6.574;2023-12-20T07:30:51;16.30;94.50
52295;DHT22;38243;53.212;6.574;2023-12-20T07:33:17;16.30;94.50
52295;DHT22;38243;53.212;6.574;2023-12-20T07:35:43;16.30;94.40
52295;DHT22;38243;53.212;6.574;2023-12-20T07:38:10;16.30;94.40
52295;DHT22;38243;53.212;6.574;2023-12-20T07:40:37;16.30;94.40
52295;DHT22;38243;53.212;6.574;2023-12-20T07:43:04;16.30;94.40
52295;DHT22;38243;53.212;6.574;2023-12-20T07:45:30;16.30;94.30
52295;DHT22;38243;53.212;6.574;2023-12-20T07:47:55;16.30;94.30
52295;DHT22;38243;53.212;6.574;2023-12-20T07:50:21;16.30;94.20
52295;DHT22;38243;53.212;6.574;2023-12-20T07:52:47;16.30;94.20
52295;DHT22;38243;53.212;6.574;2023-12-20T07:55:12;16.30;94.30
52295;DHT22;38243;53.212;6.574;2023-12-20T07:57:38;16.40;95.10
52295;DHT22;38243;53.212;6.574;2023-12-20T08:00:04;16.40;96.40
52295;DHT22;38243;53.212;6.574;2023-12-20T08:02:30;16.40;97.60
52295;DHT22;38243;53.212;6.574;2023-12-20T08:04:56;16.40;97.90
52295;DHT22;38243;53.212;6.574;2023-12-20T08:07:22;16.40;97.20
52295;DHT22;38243;53.212;6.574;2023-12-20T08:09:48;16.40;96.90
52295;DHT22;38243;53.212;6.574;2023-12-20T08:12:13;16.40;96.40
52295;DHT22;38243;53.212;6.574;2023-12-20T08:14:39;16.40;96.00
52295;DHT22;38243;53.212;6.574;2023-12-20T08:17:05;16.40;95.50
52295;DHT22;38243;53.212;6.574;2023-12-20T08:19:31;16.40;95.40
52295;DHT22;38243;53.212;6.574;2023-12-20T08:21:56;16.30;95.20
52295;DHT22;38243;53.212;6.574;2023-12-20T08:24:22;16.30;95.20
52295;DHT22;38243;53.212;6.574;2023-12-20T08:26:48;16.30;95.10
52295;DHT22;38243;53.212;6.574;2023-12-20T08:29:14;16.40;95.00
52295;DHT22;38243;53.212;6.574;2023-12-20T08:31:40;16.30;94.80
52295;DHT22;38243;53.212;6.574;2023-12-20T08:34:05;16.30;94.70
52295;DHT22;38243;53.212;6.574;2023-12-20T08:36:31;16.30;94.60
52295;DHT22;38243;53.212;6.574;2023-12-20T08:38:57;16.30;94.50
52295;DHT22;38243;53.212;6.574;2023-12-20T08:41:22;16.30;94.40
52295;DHT22;38243;53.212;6.574;2023-12-20T08:43:48;16.20;94.40
52295;DHT22;38243;53.212;6.574;2023-12-20T08:46:15;16.30;94.40
52295;DHT22;38243;53.212;6.574;2023-12-20T08:48:40;16.30;94.20
52295;DHT22;38243;53.212;6.574;2023-12-20T08:51:06;16.30;94.10
52295;DHT22;38243;53.212;6.574;2023-12-20T08:53:34;16.30;94.10
52295;DHT22;38243;53.212;6.574;2023-12-20T08:55:59;16.30;94.00
52295;DHT22;38243;53.212;6.574;2023-12-20T08:58:27;16.20;93.90
52295;DHT22;38243;53.212;6.574;2023-12-20T09:00:53;16.30;93.90
52295;DHT22;38243;53.212;6.574;2023-12-20T09:03:19;16.30;93.90
52295;DHT22;38243;53.212;6.574;2023-12-20T09:05:45;16.30;93.80
52295;DHT22;38243;53.212;6.574;2023-12-20T09:08:10;16.30;93.90
52295;DHT22;38243;53.212;6.574;2023-12-20T09:10:37;16.30;93.90
52295;DHT22;38243;53.212;6.574;2023-12-20T09:13:03;16.20;94.00
52295;DHT22;38243;53.212;6.574;2023-12-20T09:15:29;16.30;94.20
52295;DHT22;38243;53.212;6.574;2023-12-20T09:17:55;16.30;94.40
52295;DHT22;38243;53.212;6.574;2023-12-20T09:20:21;16.20;94.30
52295;DHT22;38243;53.212;6.574;2023-12-20T09:22:49;16.30;94.40
52295;DHT22;38243;53.212;6.574;2023-12-20T09:25:15;16.30;94.30
52295;DHT22;38243;53.212;6.574;2023-12-20T09:27:42;16.30;94.40
52295;DHT22;38243;53.212;6.574;2023-12-20T09:30:08;16.30;94.40
52295;DHT22;38243;53.212;6.574;2023-12-20T09:32:34;16.30;94.30
52295;DHT22;38243;53.212;6.574;2023-12-20T09:35:00;16.20;94.30
52295;DHT22;38243;53.212;6.574;2023-12-20T09:37:27;16.30;94.30
52295;DHT22;38243;53.212;6.574;2023-12-20T09:39:53;16.30;94.30
52295;DHT22;38243;53.212;6.574;2023-12-20T09:45:22;16.30;94.20
52295;DHT22;38243;53.212;6.574;2023-12-20T09:47:50;16.30;94.20
52295;DHT22;38243;53.212;6.574;2023-12-20T09:50:18;16.30;94.20
52295;DHT22;38243;53.212;6.574;2023-12-20T09:52:49;16.30;94.20
52295;DHT22;38243;53.212;6.574;2023-12-20T09:55:19;16.20;94.10
52295;DHT22;38243;53.212;6.574;2023-12-20T09:57:46;16.30;94.10
52295;DHT22;38243;53.212;6.574;2023-12-20T10:00:13;16.30;94.20
52295;DHT22;38243;53.212;6.574;2023-12-20T10:02:45;16.30;94.20
52295;DHT22;38243;53.212;6.574;2023-12-20T10:05:16;16.30;94.10
52295;DHT22;38243;53.212;6.574;2023-12-20T10:07:45;16.30;94.10
52295;DHT22;38243;53.212;6.574;2023-12-20T10:10:12;16.30;94.00
52295;DHT22;38243;53.212;6.574;2023-12-20T10:12:38;16.40;94.10
52295;DHT22;38243;53.212;6.574;2023-12-20T10:15:05;16.40;94.10
52295;DHT22;38243;53.212;6.574;2023-12-20T10:17:31;16.30;92.90
52295;DHT22;38243;53.212;6.574;2023-12-20T10:19:58;16.30;92.90
52295;DHT22;38243;53.212;6.574;2023-12-20T10:22:24;16.20;92.30
52295;DHT22;38243;53.212;6.574;2023-12-20T10:24:50;16.30;91.80
52295;DHT22;38243;53.212;6.574;2023-12-20T10:27:18;16.20;91.50
52295;DHT22;38243;53.212;6.574;2023-12-20T10:29:45;16.30;91.40
52295;DHT22;38243;53.212;6.574;2023-12-20T10:32:27;16.30;91.10
52295;DHT22;38243;53.212;6.574;2023-12-20T10:34:54;16.30;90.50
52295;DHT22;38243;53.212;6.574;2023-12-20T10:37:20;16.30;90.60
52295;DHT22;38243;53.212;6.574;2023-12-20T10:39:54;16.30;90.50
52295;DHT22;38243;53.212;6.574;2023-12-20T10:42:25;16.40;90.60
52295;DHT22;38243;53.212;6.574;2023-12-20T10:44:52;16.40;90.30
52295;DHT22;38243;53.212;6.574;2023-12-20T10:47:20;16.40;89.10
52295;DHT22;38243;53.212;6.574;2023-12-20T10:49:46;16.30;87.90
52295;DHT22;38243;53.212;6.574;2023-12-20T10:52:13;16.30;87.90
52295;DHT22;38243;53.212;6.574;2023-12-20T10:54:42;16.20;87.90
52295;DHT22;38243;53.212;6.574;2023-12-20T10:57:07;16.20;88.30
52295;DHT22;38243;53.212;6.574;2023-12-20T10:59:36;16.20;89.10
52295;DHT22;38243;53.212;6.574;2023-12-20T11:02:03;16.30;89.70
52295;DHT22;38243;53.212;6.574;2023-12-20T11:04:51;16.30;90.00
52295;DHT22;38243;53.212;6.574;2023-12-20T11:07:39;16.40;90.10
52295;DHT22;38243;53.212;6.574;2023-12-20T11:10:15;16.40;90.20
52295;DHT22;38243;53.212;6.574;2023-12-20T11:12:52;16.50;90.30
52295;DHT22;38243;53.212;6.574;2023-12-20T11:15:20;16.50;90.30
52295;DHT22;38243;53.212;6.574;2023-12-20T11:17:47;16.60;90.40
52295;DHT22;38243;53.212;6.574;2023-12-20T11:20:23;16.50;90.40
52295;DHT22;38243;53.212;6.574;2023-12-20T11:22:53;16.60;90.50
52295;DHT22;38243;53.212;6.574;2023-12-20T11:25:20;16.60;90.50
52295;DHT22;38243;53.212;6.574;2023-12-20T11:30:54;16.60;90.50
52295;DHT22;38243;53.212;6.574;2023-12-20T11:33:25;16.60;90.50
52295;DHT22;38243;53.212;6.574;2023-12-20T11:35:52;16.60;90.50
52295;DHT22;38243;53.212;6.574;2023-12-20T11:38:20;16.60;90.60
52295;DHT22;38243;53.212;6.574;2023-12-20T11:40:49;16.60;90.60
52295;DHT22;38243;53.212;6.574;2023-12-20T11:43:35;16.60;90.60
52295;DHT22;38243;53.212;6.574;2023-12-20T11:46:08;16.70;90.60
52295;DHT22;38243;53.212;6.574;2023-12-20T11:48:36;16.60;90.50
52295;DHT22;38243;53.212;6.574;2023-12-20T11:51:02;16.60;90.60
52295;DHT22;38243;53.212;6.574;2023-12-20T11:53:29;16.70;90.60
52295;DHT22;38243;53.212;6.574;2023-12-20T11:55:57;16.60;90.60
52295;DHT22;38243;53.212;6.574;2023-12-20T11:58:23;16.60;90.60
52295;DHT22;38243;53.212;6.574;2023-12-20T12:00:50;16.70;90.60
52295;DHT22;38243;53.212;6.574;2023-12-20T12:03:17;16.60;90.60
52295;DHT22;38243;53.212;6.574;2023-12-20T12:05:42;16.60;90.60
52295;DHT22;38243;53.212;6.574;2023-12-20T12:08:08;16.60;90.60
52295;DHT22;38243;53.212;6.574;2023-12-20T12:10:34;16.60;90.50
52295;DHT22;38243;53.212;6.574;2023-12-20T12:13:00;16.60;90.60
52295;DHT22;38243;53.212;6.574;2023-12-20T12:15:26;16.50;90.50
52295;DHT22;38243;53.212;6.574;2023-12-20T12:17:56;16.60;90.60
52295;DHT22;38243;53.212;6.574;2023-12-20T12:20:22;16.50;90.50
52295;DHT22;38243;53.212;6.574;2023-12-20T12:23:06;16.60;90.60
52295;DHT22;38243;53.212;6.574;2023-12-20T12:25:34;16.50;90.60
52295;DHT22;38243;53.212;6.574;2023-12-20T12:28:01;16.60;90.70
52295;DHT22;38243;53.212;6.574;2023-12-20T12:30:27;16.60;90.70
52295;DHT22;38243;53.212;6.574;2023-12-20T12:32:53;16.60;90.70
52295;DHT22;38243;53.212;6.574;2023-12-20T12:35:21;16.60;90.70
52295;DHT22;38243;53.212;6.574;2023-12-20T12:37:47;16.60;90.80
52295;DHT22;38243;53.212;6.574;2023-12-20T12:40:14;16.60;90.80
52295;DHT22;38243;53.212;6.574;2023-12-20T12:42:41;16.70;90.90
52295;DHT22;38243;53.212;6.574;2023-12-20T12:45:08;16.70;90.80
52295;DHT22;38243;53.212;6.574;2023-12-20T12:47:34;16.70;90.90
52295;DHT22;38243;53.212;6.574;2023-12-20T12:50:00;16.70;90.80
52295;DHT22;38243;53.212;6.574;2023-12-20T12:52:26;16.70;90.70
52295;DHT22;38243;53.212;6.574;2023-12-20T12:54:53;16.70;90.70
52295;DHT22;38243;53.212;6.574;2023-12-20T12:57:19;16.70;90.90
52295;DHT22;38243;53.212;6.574;2023-12-20T12:59:46;16.70;90.50
52295;DHT22;38243;53.212;6.574;2023-12-20T13:02:15;16.70;90.50
52295;DHT22;38243;53.212;6.574;2023-12-20T13:04:41;16.70;90.50
52295;DHT22;38243;53.212;6.574;2023-12-20T13:07:08;16.70;90.40
52295;DHT22;38243;53.212;6.574;2023-12-20T13:09:36;16.70;90.30
52295;DHT22;38243;53.212;6.574;2023-12-20T13:12:02;16.70;90.30
52295;DHT22;38243;53.212;6.574;2023-12-20T13:14:31;16.70;90.20
52295;DHT22;38243;53.212;6.574;2023-12-20T13:16:58;16.70;90.30
52295;DHT22;38243;53.212;6.574;2023-12-20T13:19:24;16.70;90.30
52295;DHT22;38243;53.212;6.574;2023-12-20T13:21:49;16.60;90.20
52295;DHT22;38243;53.212;6.574;2023-12-20T13:24:15;16.60;90.30
52295;DHT22;38243;53.212;6.574;2023-12-20T13:26:41;16.60;90.20
52295;DHT22;38243;53.212;6.574;2023-12-20T13:29:06;16.60;90.20
52295;DHT22;38243;53.212;6.574;2023-12-20T13:31:32;16.60;90.30
52295;DHT22;38243;53.212;6.574;2023-12-20T13:33:58;16.60;90.30
52295;DHT22;38243;53.212;6.574;2023-12-20T13:36:24;16.50;90.40
52295;DHT22;38243;53.212;6.574;2023-12-20T13:38:50;16.60;90.30
52295;DHT22;38243;53.212;6.574;2023-12-20T13:41:15;16.50;90.30
52295;DHT22;38243;53.212;6.574;2023-12-20T13:43:41;16.50;90.30
52295;DHT22;38243;53.212;6.574;2023-12-20T13:46:08;16.60;90.40
52295;DHT22;38243;53.212;6.574;2023-12-20T13:48:34;16.50;90.30
52295;DHT22;38243;53.212;6.574;2023-12-20T13:51:00;16.50;90.30
52295;DHT22;38243;53.212;6.574;2023-12-20T13:53:28;16.50;90.30
52295;DHT22;38243;53.212;6.574;2023-12-20T13:55:54;16.50;90.40
52295;DHT22;38243;53.212;6.574;2023-12-20T13:58:19;16.40;90.40
52295;DHT22;38243;53.212;6.574;2023-12-20T14:00:45;16.50;90.40
52295;DHT22;38243;53.212;6.574;2023-12-20T14:03:11;16.40;90.40
52295;DHT22;38243;53.212;6.574;2023-12-20T14:05:37;16.40;90.40
52295;DHT22;38243;53.212;6.574;2023-12-20T14:08:03;16.40;90.40
52295;DHT22;38243;53.212;6.574;2023-12-20T14:10:29;16.40;90.30
52295;DHT22;38243;53.212;6.574;2023-12-20T14:12:55;16.40;90.30
52295;DHT22;38243;53.212;6.574;2023-12-20T14:15:21;16.40;90.30
52295;DHT22;38243;53.212;6.574;2023-12-20T14:17:47;16.40;90.40
52295;DHT22;38243;53.212;6.574;2023-12-20T14:20:13;16.40;90.40
52295;DHT22;38243;53.212;6.574;2023-12-20T14:22:39;16.40;90.40
52295;DHT22;38243;53.212;6.574;2023-12-20T14:25:11;16.40;90.40
52295;DHT22;38243;53.212;6.574;2023-12-20T14:27:38;16.30;90.40
52295;DHT22;38243;53.212;6.574;2023-12-20T14:30:04;16.30;90.40
52295;DHT22;38243;53.212;6.574;2023-12-20T14:32:31;16.30;90.40
52295;DHT22;38243;53.212;6.574;2023-12-20T14:34:57;16.30;90.40
52295;DHT22;38243;53.212;6.574;2023-12-20T14:37:23;16.30;90.40
52295;DHT22;38243;53.212;6.574;2023-12-20T14:39:49;16.30;90.40
52295;DHT22;38243;53.212;6.574;2023-12-20T14:42:14;16.30;90.40
52295;DHT22;38243;53.212;6.574;2023-12-20T14:44:40;16.30;90.40
52295;DHT22;38243;53.212;6.574;2023-12-20T14:47:06;16.30;90.40
52295;DHT22;38243;53.212;6.574;2023-12-20T14:49:32;16.20;90.40
52295;DHT22;38243;53.212;6.574;2023-12-20T14:51:58;16.20;90.40
52295;DHT22;38243;53.212;6.574;2023-12-20T14:54:25;16.20;90.40
52295;DHT22;38243;53.212;6.574;2023-12-20T14:56:50;16.20;90.40
52295;DHT22;38243;53.212;6.574;2023-12-20T14:59:16;16.20;90.40
52295;DHT22;38243;53.212;6.574;2023-12-20T15:01:43;16.20;90.40
52295;DHT22;38243;53.212;6.574;2023-12-20T15:04:09;16.20;90.40
52295;DHT22;38243;53.212;6.574;2023-12-20T15:06:36;16.20;90.40
52295;DHT22;38243;53.212;6.574;2023-12-20T15:09:02;16.20;90.40
52295;DHT22;38243;53.212;6.574;2023-12-20T15:11:33;16.20;90.40
52295;DHT22;38243;53.212;6.574;2023-12-20T15:13:58;16.20;90.50
52295;DHT22;38243;53.212;6.574;2023-12-20T15:16:25;16.20;90.50
52295;DHT22;38243;53.212;6.574;2023-12-20T15:18:51;16.10;90.40
52295;DHT22;38243;53.212;6.574;2023-12-20T15:21:19;16.10;90.50
52295;DHT22;38243;53.212;6.574;2023-12-20T15:23:44;16.10;90.50
52295;DHT22;38243;53.212;6.574;2023-12-20T15:26:19;16.10;90.50
52295;DHT22;38243;53.212;6.574;2023-12-20T15:28:45;16.10;90.70
52295;DHT22;38243;53.212;6.574;2023-12-20T15:31:10;16.10;90.70